createdAt,value
2018-10-12T00:01:12.325Z,13.25
2018-10-12T00:03:40.390Z,13.30
2018-10-12T00:06:14.543Z,13.31
2018-10-12T00:08:42.642Z,13.23
2018-10-12T00:11:10.756Z,13.42
2018-10-12T00:13:38.911Z,13.37
2018-10-12T00:16:07.092Z,13.13
2018-10-12T00:18:35.181Z,13.10
2018-10-12T00:21:03.339Z,12.97
2018-10-12T00:23:31.423Z,13.14
2018-10-12T00:25:59.575Z,13.12
2018-10-12T00:28:27.676Z,13.08
2018-10-12T00:31:09.393Z,12.95
2018-10-12T00:33:38.011Z,12.93
2018-10-12T00:36:17.600Z,12.77
2018-10-12T00:38:45.879Z,12.95
2018-10-12T00:41:14.003Z,13.07
2018-10-12T00:43:42.648Z,12.96
2018-10-12T00:46:17.992Z,13.09
2018-10-12T00:48:46.075Z,13.02
2018-10-12T00:51:17.719Z,12.97
2018-10-12T00:53:49.459Z,13.01
2018-10-12T00:56:17.630Z,12.97
2018-10-12T00:58:45.713Z,12.95
2018-10-12T01:01:13.890Z,12.87
2018-10-12T01:03:41.983Z,12.93
2018-10-12T01:06:10.100Z,13.03
2018-10-12T01:08:38.183Z,12.89
2018-10-12T01:11:06.321Z,12.79
2018-10-12T01:13:34.488Z,12.68
2018-10-12T01:16:02.589Z,12.86
2018-10-12T01:18:30.689Z,12.83
2018-10-12T01:20:58.809Z,12.74
2018-10-12T01:23:26.893Z,12.53
2018-10-12T01:25:55.039Z,12.55
2018-10-12T01:28:23.128Z,12.38
2018-10-12T01:30:51.262Z,12.50
2018-10-12T01:33:19.403Z,12.54
2018-10-12T01:35:47.473Z,12.36
2018-10-12T01:38:15.561Z,12.37
2018-10-12T01:40:43.647Z,12.29
2018-10-12T01:43:11.805Z,12.46
2018-10-12T01:45:39.905Z,12.44
2018-10-12T01:48:07.995Z,12.30
2018-10-12T01:50:36.114Z,12.31
2018-10-12T01:53:04.195Z,12.37
2018-10-12T01:55:32.299Z,12.15
2018-10-12T01:58:00.449Z,12.06
2018-10-12T02:00:28.581Z,12.27
2018-10-12T02:02:56.715Z,12.32
2018-10-12T02:05:24.844Z,12.26
2018-10-12T02:07:52.932Z,12.24
2018-10-12T02:10:21.003Z,12.24
2018-10-12T02:12:49.093Z,12.28
2018-10-12T02:15:17.173Z,12.35
2018-10-12T02:17:45.231Z,12.22
2018-10-12T02:20:13.681Z,12.24
2018-10-12T02:22:42.264Z,12.30
2018-10-12T02:25:11.172Z,12.23
2018-10-12T02:27:39.799Z,12.08
2018-10-12T02:30:08.401Z,11.99
2018-10-12T02:32:36.600Z,11.95
2018-10-12T02:35:05.104Z,11.92
2018-10-12T02:37:33.393Z,12.06
2018-10-12T02:40:01.564Z,12.07
2018-10-12T02:42:29.640Z,12.03
2018-10-12T02:44:57.721Z,11.92
2018-10-12T02:47:25.795Z,11.81
2018-10-12T02:49:53.911Z,11.74
2018-10-12T02:52:22.016Z,11.87
2018-10-12T02:54:50.113Z,11.73
2018-10-12T02:57:18.255Z,11.80
2018-10-12T02:59:46.375Z,11.82
2018-10-12T03:02:14.487Z,11.86
2018-10-12T03:04:42.609Z,11.85
2018-10-12T03:07:10.693Z,11.77
2018-10-12T03:09:38.791Z,11.80
2018-10-12T03:12:06.886Z,11.77
2018-10-12T03:14:34.967Z,11.69
2018-10-12T03:17:03.033Z,11.77
2018-10-12T03:19:31.121Z,11.69
2018-10-12T03:21:59.211Z,11.66
2018-10-12T03:24:27.292Z,11.55
2018-10-12T03:26:55.371Z,11.65
2018-10-12T03:29:23.440Z,11.67
2018-10-12T03:31:51.539Z,11.78
2018-10-12T03:34:19.974Z,11.76
2018-10-12T03:36:48.065Z,11.73
2018-10-12T03:39:16.140Z,11.57
2018-10-12T03:41:44.315Z,11.55
2018-10-12T03:44:12.399Z,11.65
2018-10-12T03:46:40.493Z,11.54
2018-10-12T03:49:08.570Z,11.56
2018-10-12T03:51:36.700Z,11.49
2018-10-12T03:54:04.818Z,11.52
2018-10-12T03:56:32.893Z,11.50
2018-10-12T03:59:00.963Z,11.51
2018-10-12T04:01:29.059Z,11.58
2018-10-12T04:03:57.153Z,11.61
2018-10-12T04:06:25.407Z,11.43
2018-10-12T04:08:53.500Z,11.42
2018-10-12T04:11:21.599Z,11.35
2018-10-12T04:13:49.704Z,11.41
2018-10-12T04:16:17.831Z,11.39
2018-10-12T04:18:45.917Z,11.37
2018-10-12T04:21:14.011Z,11.20
2018-10-12T04:23:42.167Z,11.29
2018-10-12T04:26:10.437Z,11.30
2018-10-12T04:28:38.549Z,11.23
2018-10-12T04:31:06.616Z,11.13
2018-10-12T04:33:34.700Z,10.99
2018-10-12T04:36:02.775Z,11.01
2018-10-12T04:41:17.069Z,11.06
2018-10-12T04:43:46.193Z,11.09
2018-10-12T04:46:20.603Z,11.11
2018-10-12T04:48:49.583Z,11.09
2018-10-12T04:51:22.076Z,10.97
2018-10-12T04:53:50.386Z,10.95
2018-10-12T04:56:19.568Z,10.85
2018-10-12T04:58:47.677Z,10.80
2018-10-12T05:01:15.901Z,10.82
2018-10-12T05:03:43.857Z,10.72
2018-10-12T05:06:11.957Z,10.70
2018-10-12T05:08:40.197Z,10.87
2018-10-12T05:11:08.324Z,10.88
2018-10-12T05:13:36.775Z,10.92
2018-10-12T05:16:05.650Z,10.92
2018-10-12T05:18:33.772Z,10.84
2018-10-12T05:21:02.664Z,10.85
2018-10-12T05:23:30.863Z,10.92
2018-10-12T05:25:59.468Z,10.88
2018-10-12T05:28:28.273Z,10.91
2018-10-12T05:30:56.542Z,11.03
2018-10-12T05:33:24.740Z,11.08
2018-10-12T05:35:53.119Z,11.00
2018-10-12T05:38:21.931Z,10.95
2018-10-12T05:40:50.055Z,10.97
2018-10-12T05:43:18.448Z,11.00
2018-10-12T05:45:47.250Z,11.03
2018-10-12T05:48:26.931Z,11.12
2018-10-12T05:50:55.240Z,11.06
2018-10-12T05:53:24.261Z,11.15
2018-10-12T05:55:52.425Z,11.20
2018-10-12T05:58:20.755Z,11.29
2018-10-12T06:00:49.377Z,11.43
2018-10-12T06:03:17.455Z,11.41
2018-10-12T06:05:45.550Z,11.46
2018-10-12T06:08:13.632Z,11.51
2018-10-12T06:10:41.727Z,11.56
2018-10-12T06:13:09.816Z,11.67
2018-10-12T06:15:37.926Z,11.71
2018-10-12T06:18:07.932Z,11.80
2018-10-12T06:20:36.172Z,11.85
2018-10-12T06:23:04.328Z,11.94
2018-10-12T06:25:32.494Z,11.78
2018-10-12T06:28:00.707Z,11.64
2018-10-12T06:30:28.839Z,11.72
2018-10-12T06:32:57.021Z,11.85
2018-10-12T06:35:25.418Z,11.89
2018-10-12T06:37:53.626Z,11.84
2018-10-12T06:40:21.827Z,12.02
2018-10-12T06:42:49.923Z,11.97
2018-10-12T06:45:18.047Z,11.97
2018-10-12T06:47:46.165Z,11.96
2018-10-12T06:50:14.243Z,11.97
2018-10-12T06:52:42.311Z,12.03
2018-10-12T06:55:10.431Z,12.07
2018-10-12T06:57:38.507Z,12.13
2018-10-12T07:00:06.851Z,12.14
2018-10-12T07:02:34.864Z,12.17
2018-10-12T07:05:02.965Z,12.25
2018-10-12T07:07:31.059Z,12.27
2018-10-12T07:09:59.148Z,12.35
2018-10-12T07:12:27.231Z,12.35
2018-10-12T07:14:55.323Z,12.45
2018-10-12T07:17:24.080Z,12.55
2018-10-12T07:19:52.249Z,12.59
2018-10-12T07:22:20.395Z,12.66
2018-10-12T07:24:48.493Z,12.79
2018-10-12T07:27:16.611Z,12.96
2018-10-12T07:29:45.144Z,13.14
2018-10-12T07:32:13.285Z,13.36
2018-10-12T07:34:41.392Z,13.47
2018-10-12T07:37:09.542Z,13.63
2018-10-12T07:39:37.571Z,13.70
2018-10-12T07:42:05.701Z,13.85
2018-10-12T07:44:33.783Z,13.93
2018-10-12T07:47:02.012Z,14.01
2018-10-12T07:49:40.556Z,14.10
2018-10-12T07:52:08.610Z,14.28
2018-10-12T07:54:38.350Z,14.38
2018-10-12T07:57:12.498Z,14.56
2018-10-12T07:59:41.285Z,14.60
2018-10-12T08:02:11.320Z,14.69
2018-10-12T08:04:40.567Z,14.76
2018-10-12T08:07:09.019Z,15.10
2018-10-12T08:09:37.727Z,15.24
2018-10-12T08:12:05.839Z,15.32
2018-10-12T08:17:27.911Z,15.49
2018-10-12T08:19:56.015Z,15.53
2018-10-12T08:22:24.171Z,15.53
2018-10-12T08:24:52.280Z,15.61
2018-10-12T08:27:20.449Z,15.67
2018-10-12T08:29:48.620Z,15.79
2018-10-12T08:32:16.746Z,15.94
2018-10-12T08:34:44.888Z,16.05
2018-10-12T08:37:13.045Z,16.08
2018-10-12T08:39:41.131Z,16.14
2018-10-12T08:42:09.236Z,16.19
2018-10-12T08:44:37.371Z,16.24
2018-10-12T08:47:05.544Z,16.32
2018-10-12T08:49:33.651Z,16.35
2018-10-12T08:52:01.807Z,16.46
2018-10-12T08:54:29.968Z,16.52
2018-10-12T08:56:58.055Z,16.56
2018-10-12T08:59:26.163Z,16.73
2018-10-12T09:01:54.256Z,16.77
2018-10-12T09:04:22.823Z,16.87
2018-10-12T09:06:50.932Z,16.93
2018-10-12T09:09:19.098Z,17.00
2018-10-12T09:11:47.224Z,17.17
2018-10-12T09:14:15.325Z,17.22
2018-10-12T09:16:43.408Z,17.25
2018-10-12T09:19:11.502Z,17.30
2018-10-12T09:21:39.625Z,17.43
2018-10-12T09:24:07.696Z,17.50
2018-10-12T09:26:35.898Z,17.59
2018-10-12T09:29:04.110Z,17.69
2018-10-12T09:31:32.203Z,17.88
2018-10-12T09:34:00.390Z,17.95
2018-10-12T09:36:28.576Z,17.99
2018-10-12T09:38:56.734Z,18.03
2018-10-12T09:41:24.867Z,18.11
2018-10-12T09:43:54.632Z,18.19
2018-10-12T09:46:23.019Z,18.28
2018-10-12T09:48:51.109Z,18.55
2018-10-12T09:51:19.200Z,18.60
2018-10-12T09:53:47.394Z,18.61
2018-10-12T09:56:16.540Z,18.70
2018-10-12T09:58:45.278Z,18.73
2018-10-12T10:01:18.793Z,18.82
2018-10-12T10:03:52.263Z,18.86
2018-10-12T10:06:20.412Z,18.89
2018-10-12T10:08:48.700Z,18.98
2018-10-12T10:11:16.708Z,19.08
2018-10-12T10:13:44.883Z,19.20
2018-10-12T10:16:12.973Z,19.38
2018-10-12T10:18:41.068Z,19.46
2018-10-12T10:21:09.181Z,19.75
2018-10-12T10:23:37.344Z,19.76
2018-10-12T10:26:05.455Z,19.82
2018-10-12T10:28:33.540Z,19.88
2018-10-12T10:31:01.628Z,19.89
2018-10-12T10:33:29.737Z,19.92
2018-10-12T10:35:57.825Z,20.09
2018-10-12T10:38:25.903Z,20.14
2018-10-12T10:40:54.010Z,20.19
2018-10-12T10:43:22.104Z,20.12
2018-10-12T10:45:50.208Z,20.10
2018-10-12T10:48:18.304Z,20.28
2018-10-12T10:50:46.507Z,20.32
2018-10-12T10:53:14.639Z,20.29
2018-10-12T10:55:42.809Z,20.33
2018-10-12T10:58:10.911Z,20.57
2018-10-12T11:00:38.998Z,20.63
2018-10-12T11:03:07.436Z,20.65
2018-10-12T11:05:35.517Z,20.74
2018-10-12T11:08:03.597Z,20.83
2018-10-12T11:10:31.669Z,20.89
2018-10-12T11:12:59.763Z,20.95
2018-10-12T11:15:27.814Z,21.09
2018-10-12T11:17:55.903Z,21.11
2018-10-12T11:20:24.149Z,21.23
2018-10-12T11:22:52.166Z,21.28
2018-10-12T11:25:20.254Z,21.38
2018-10-12T11:27:48.377Z,21.67
2018-10-12T11:30:16.496Z,21.61
2018-10-12T11:32:44.629Z,21.70
2018-10-12T11:35:12.739Z,21.66
2018-10-12T11:37:40.835Z,21.69
2018-10-12T11:40:08.928Z,21.83
2018-10-12T11:42:48.346Z,21.86
2018-10-12T11:45:16.478Z,21.91
2018-10-12T11:47:44.512Z,22.03
2018-10-12T11:50:12.608Z,22.39
2018-10-12T11:52:40.708Z,22.44
2018-10-12T11:55:08.819Z,22.41
2018-10-12T11:57:36.902Z,22.46
2018-10-12T12:00:05.000Z,22.39
2018-10-12T12:02:33.168Z,22.38
2018-10-12T12:05:01.275Z,22.49
2018-10-12T12:07:29.352Z,22.48
2018-10-12T12:09:57.423Z,22.51
2018-10-12T12:12:25.588Z,22.55
2018-10-12T12:14:53.688Z,22.62
2018-10-12T12:17:21.756Z,22.95
2018-10-12T12:19:49.894Z,22.93
2018-10-12T12:22:18.104Z,22.91
2018-10-12T12:24:46.214Z,22.90
2018-10-12T12:27:14.684Z,23.17
2018-10-12T12:29:42.816Z,23.39
2018-10-12T12:32:10.904Z,23.51
2018-10-12T12:34:39.118Z,23.50
2018-10-12T12:37:07.075Z,23.63
2018-10-12T12:39:35.320Z,23.55
2018-10-12T12:42:03.409Z,23.46
2018-10-12T12:44:32.015Z,23.46
2018-10-12T12:47:00.088Z,23.52
2018-10-12T12:49:28.386Z,23.63
2018-10-12T12:51:56.260Z,23.61
2018-10-12T12:54:24.852Z,23.55
2018-10-12T12:56:54.830Z,23.58
2018-10-12T12:59:22.915Z,23.63
2018-10-12T13:01:51.108Z,23.62
2018-10-12T13:04:19.270Z,23.75
2018-10-12T13:06:47.435Z,23.80
2018-10-12T13:09:15.590Z,23.94
2018-10-12T13:11:43.763Z,23.83
2018-10-12T13:14:11.857Z,23.78
2018-10-12T13:16:39.941Z,23.85
2018-10-12T13:19:08.069Z,23.83
2018-10-12T13:21:36.139Z,23.83
2018-10-12T13:24:04.292Z,23.98
2018-10-12T13:26:32.417Z,24.14
2018-10-12T13:29:00.499Z,24.18
2018-10-12T13:31:28.601Z,24.14
2018-10-12T13:33:56.695Z,24.13
2018-10-12T13:36:24.805Z,24.16
2018-10-12T13:38:52.873Z,24.35
2018-10-12T13:41:20.999Z,24.36
2018-10-12T13:43:49.100Z,24.34
2018-10-12T13:46:17.234Z,24.45
2018-10-12T13:48:45.331Z,24.52
2018-10-12T13:51:13.556Z,24.45
2018-10-12T13:53:42.936Z,24.44
2018-10-12T13:56:13.454Z,24.48
2018-10-12T13:58:41.928Z,24.65
2018-10-12T14:01:11.431Z,24.62
2018-10-12T14:03:44.853Z,24.66
2018-10-12T14:06:15.933Z,24.65
2018-10-12T14:08:45.185Z,24.62
2018-10-12T14:11:13.991Z,24.52
2018-10-12T14:13:56.812Z,24.46
2018-10-12T14:16:25.749Z,24.42
2018-10-12T14:18:55.226Z,24.49
2018-10-12T14:21:23.436Z,24.46
2018-10-12T14:23:53.882Z,24.45
2018-10-12T14:26:39.439Z,24.53
2018-10-12T14:29:16.556Z,24.46
2018-10-12T14:31:47.065Z,24.36
2018-10-12T14:34:17.163Z,24.37
2018-10-12T14:36:50.160Z,24.39
2018-10-12T14:39:20.731Z,24.39
2018-10-12T14:41:54.982Z,24.45
2018-10-12T14:44:29.212Z,24.46
2018-10-12T14:46:57.526Z,24.53
2018-10-12T14:49:25.609Z,24.54
2018-10-12T14:51:53.700Z,24.52
2018-10-12T14:54:21.903Z,24.59
2018-10-12T14:56:50.018Z,24.56
2018-10-12T14:59:18.632Z,24.60
2018-10-12T15:01:47.340Z,24.59
2018-10-12T15:04:15.588Z,24.54
2018-10-12T15:06:44.290Z,24.44
2018-10-12T15:09:13.705Z,24.40
2018-10-12T15:11:41.991Z,24.47
2018-10-12T15:14:10.359Z,24.40
2018-10-12T15:16:38.511Z,24.38
2018-10-12T15:19:06.962Z,24.25
2018-10-12T15:21:35.109Z,24.21
2018-10-12T15:24:03.147Z,24.12
2018-10-12T15:26:31.244Z,24.09
2018-10-12T15:28:59.328Z,24.05
2018-10-12T15:31:27.487Z,23.96
2018-10-12T15:33:55.564Z,23.92
2018-10-12T15:36:23.672Z,23.81
2018-10-12T15:38:51.762Z,23.68
2018-10-12T15:41:20.204Z,23.61
2018-10-12T15:43:48.533Z,23.67
2018-10-12T15:46:16.744Z,23.55
2018-10-12T15:48:44.909Z,23.50
2018-10-12T15:51:13.122Z,23.43
2018-10-12T15:53:41.075Z,23.35
2018-10-12T15:56:09.239Z,23.17
2018-10-12T15:58:37.256Z,23.20
2018-10-12T16:01:06.290Z,23.14
2018-10-12T16:03:34.380Z,23.05
2018-10-12T16:06:02.529Z,22.96
2018-10-12T16:08:30.568Z,22.79
2018-10-12T16:10:58.752Z,22.79
2018-10-12T16:13:26.912Z,22.62
2018-10-12T16:15:55.030Z,22.55
2018-10-12T16:18:23.161Z,22.42
2018-10-12T16:20:51.276Z,22.34
2018-10-12T16:23:19.335Z,22.23
2018-10-12T16:26:02.871Z,22.09
2018-10-12T16:28:30.964Z,21.96
2018-10-12T16:30:59.287Z,21.87
2018-10-12T16:33:27.372Z,21.77
2018-10-12T16:38:24.006Z,21.55
2018-10-12T16:40:52.118Z,21.47
2018-10-12T16:43:20.219Z,21.38
2018-10-12T16:45:49.459Z,21.27
2018-10-12T16:48:17.545Z,21.13
2018-10-12T16:50:45.728Z,20.99
2018-10-12T16:53:13.956Z,20.88
2018-10-12T16:55:42.135Z,20.82
2018-10-12T16:58:11.354Z,20.75
2018-10-12T17:00:41.291Z,20.54
2018-10-12T17:03:10.519Z,20.54
2018-10-12T17:05:41.256Z,20.48
2018-10-12T17:08:10.312Z,20.36
2018-10-12T17:10:39.472Z,20.28
2018-10-12T17:13:07.966Z,20.19
2018-10-12T17:15:36.393Z,20.10
2018-10-12T17:18:09.054Z,20.01
2018-10-12T17:20:39.437Z,19.90
2018-10-12T17:23:08.240Z,19.81
2018-10-12T17:25:37.989Z,19.75
2018-10-12T17:28:08.656Z,19.60
2018-10-12T17:30:37.423Z,19.56
2018-10-12T17:33:06.995Z,19.40
2018-10-12T17:35:38.610Z,19.29
2018-10-12T17:38:08.319Z,19.26
2018-10-12T17:40:38.550Z,19.24
2018-10-12T17:43:07.261Z,19.18
2018-10-12T17:45:36.197Z,19.13
2018-10-12T17:48:06.608Z,19.10
2018-10-12T17:50:37.411Z,18.93
2018-10-12T17:53:06.320Z,18.81
2018-10-12T17:55:37.601Z,18.77
2018-10-12T17:58:07.350Z,18.75
2018-10-12T18:00:37.442Z,18.64
2018-10-12T18:03:08.224Z,18.58
2018-10-12T18:05:36.579Z,18.58
2018-10-12T18:08:05.756Z,18.53
2018-10-12T18:10:34.261Z,18.48
2018-10-12T18:13:05.235Z,18.46
2018-10-12T18:15:36.807Z,18.27
2018-10-12T18:18:06.035Z,18.23
2018-10-12T18:20:38.428Z,18.21
2018-10-12T18:23:11.779Z,18.15
2018-10-12T18:25:41.633Z,18.04
2018-10-12T18:28:11.591Z,17.68
2018-10-12T18:30:41.268Z,17.70
2018-10-12T18:33:11.375Z,17.73
2018-10-12T18:35:44.617Z,17.71
2018-10-12T18:38:14.293Z,17.66
2018-10-12T18:43:27.941Z,17.62
2018-10-12T18:45:56.562Z,17.50
2018-10-12T18:48:25.149Z,17.50
2018-10-12T18:50:53.655Z,17.51
2018-10-12T18:53:22.044Z,17.20
2018-10-12T18:55:50.499Z,17.07
2018-10-12T18:58:20.333Z,17.10
2018-10-12T19:00:50.812Z,17.08
2018-10-12T19:03:22.037Z,17.11
2018-10-12T19:05:51.380Z,17.07
2018-10-12T19:08:20.703Z,17.10
2018-10-12T19:10:50.999Z,17.05
2018-10-12T19:13:20.449Z,16.99
2018-10-12T19:15:54.649Z,16.88
2018-10-12T19:18:43.465Z,16.69
2018-10-12T19:21:12.436Z,16.75
2018-10-12T19:23:41.755Z,16.51
2018-10-12T19:26:12.869Z,16.55
2018-10-12T19:28:43.048Z,16.53
2018-10-12T19:33:51.773Z,16.56
2018-10-12T19:36:24.464Z,16.53
2018-10-12T19:38:54.230Z,16.45
2018-10-12T19:41:34.377Z,16.31
2018-10-12T19:44:03.499Z,16.32
2018-10-12T19:46:39.657Z,16.29
2018-10-12T19:49:10.474Z,16.29
2018-10-12T19:51:50.417Z,16.13
2018-10-12T19:54:23.821Z,16.06
2018-10-12T19:56:53.359Z,16.04
2018-10-12T19:59:23.845Z,15.96
2018-10-12T20:01:57.817Z,15.97
2018-10-12T20:04:26.817Z,15.97
2018-10-12T20:06:57.447Z,15.93
2018-10-12T20:09:32.799Z,15.95
2018-10-12T20:12:04.859Z,15.97
2018-10-12T20:14:34.411Z,16.01
2018-10-12T20:17:06.396Z,15.98
2018-10-12T20:19:37.174Z,15.98
2018-10-12T20:22:09.825Z,15.91
2018-10-12T20:24:56.468Z,15.92
2018-10-12T20:27:26.675Z,15.55
2018-10-12T20:29:56.096Z,15.52
2018-10-12T20:32:25.249Z,15.42
2018-10-12T20:35:00.535Z,15.53
2018-10-12T20:37:32.128Z,15.54
2018-10-12T20:40:02.356Z,15.55
2018-10-12T20:42:33.789Z,15.53
2018-10-12T20:45:03.942Z,15.54
2018-10-12T20:47:34.974Z,15.51
2018-10-12T20:50:05.101Z,15.51
2018-10-12T20:52:36.603Z,15.55
2018-10-12T20:55:08.575Z,15.55
2018-10-12T20:57:42.039Z,15.50
2018-10-12T21:00:11.964Z,15.44
2018-10-12T21:02:40.233Z,15.26
2018-10-12T21:05:09.813Z,15.27
2018-10-12T21:07:39.518Z,15.25
2018-10-12T21:10:09.693Z,15.15
2018-10-12T21:12:38.201Z,15.16
2018-10-12T21:15:09.433Z,15.12
2018-10-12T21:17:39.054Z,15.04
2018-10-12T21:20:11.352Z,14.95
2018-10-12T21:22:43.888Z,14.93
2018-10-12T21:25:14.475Z,14.85
2018-10-12T21:27:43.027Z,14.90
2018-10-12T21:30:12.521Z,14.96
2018-10-12T21:32:41.847Z,15.00
2018-10-12T21:35:10.316Z,15.04
2018-10-12T21:37:40.089Z,15.02
2018-10-12T21:40:12.817Z,14.99
2018-10-12T21:42:42.302Z,14.82
2018-10-12T21:45:13.443Z,14.74
2018-10-12T21:47:41.940Z,14.66
2018-10-12T21:50:12.620Z,14.65
2018-10-12T21:52:41.016Z,14.81
2018-10-12T21:55:09.258Z,14.80
2018-10-12T21:57:37.667Z,14.71
2018-10-12T22:00:07.165Z,14.71
2018-10-12T22:02:36.479Z,14.71
2018-10-12T22:05:05.848Z,14.70
2018-10-12T22:07:35.189Z,14.59
2018-10-12T22:10:05.791Z,14.47
2018-10-12T22:12:40.091Z,14.60
2018-10-12T22:15:11.501Z,14.51
2018-10-12T22:17:42.300Z,14.49
2018-10-12T22:20:14.452Z,14.43
2018-10-12T22:22:47.977Z,14.39
2018-10-12T22:25:17.075Z,14.40
2018-10-12T22:27:46.255Z,14.37
2018-10-12T22:30:15.348Z,14.35
2018-10-12T22:32:43.601Z,14.35
2018-10-12T22:35:15.860Z,14.27
2018-10-12T22:37:46.806Z,14.10
2018-10-12T22:40:15.510Z,14.13
2018-10-12T22:42:43.990Z,14.12
2018-10-12T22:45:13.104Z,14.24
2018-10-12T22:47:45.405Z,14.14
2018-10-12T22:50:15.738Z,14.13
2018-10-12T22:52:47.368Z,14.11
2018-10-12T22:55:16.773Z,14.05
2018-10-12T22:57:45.248Z,13.88
2018-10-12T23:00:14.994Z,13.78
2018-10-12T23:02:44.096Z,13.87
2018-10-12T23:05:18.710Z,13.82
2018-10-12T23:07:47.241Z,13.73
2018-10-12T23:10:16.121Z,13.80
2018-10-12T23:12:45.710Z,13.85
2018-10-12T23:15:14.631Z,13.90
2018-10-12T23:17:44.009Z,13.84
2018-10-12T23:20:18.630Z,13.88
2018-10-12T23:22:47.745Z,13.80
2018-10-12T23:25:16.805Z,13.82
2018-10-12T23:27:46.203Z,13.82
2018-10-12T23:30:16.245Z,13.89
2018-10-12T23:32:46.546Z,13.77
2018-10-12T23:35:15.031Z,13.70
2018-10-12T23:37:44.399Z,13.77
2018-10-12T23:40:14.302Z,13.75
2018-10-12T23:42:42.535Z,13.68
2018-10-12T23:45:12.257Z,13.71
2018-10-12T23:47:43.097Z,13.67
2018-10-12T23:50:13.305Z,13.71
2018-10-12T23:52:44.276Z,13.68
2018-10-12T23:55:45.470Z,13.65
2018-10-12T23:58:17.081Z,13.66
